Terminal Aerodrome Forecast
Issued by NWS Atlanta, GA

Home | Current Version | Previous Version | Text Only | Print | Product List | Glossary On
Versions: 1 2 3 4 5 6 7 8 9 10 11 12 13 14 15 16 17 18 19 20 21 22
000
FTUS42 KFFC 271550 AAD
TAFCSG
TAF AMD
KCSG 271550Z 2716/2812 VRB04KT P6SM BKN015 OVC035
     FM271800 17006KT P6SM BKN030
      TEMPO 2721/2724 3SM -TSRA BKN015CB
     FM280000 VRB03KT P6SM BKN040
     FM280500 VRB03KT P6SM SCT020 BKN080=

USA.gov is the U.S. government's official web portal to all federal, state and local government web resources and services.